Acarigua, Venezuela

7:36 PM VET on May 27, 2015 (GMT -0430)
Barquisimeto | | Change Station
CLOSE
Current Station
Airport
Location: Barquisimeto,
Elevation: 2041 ft
Nearby Weather Stations

Elev 2041 ft 10.04 °N, 69.36 °W | Updated 1 hour ago

Mostly Cloudy
Mostly Cloudy
82 °F
Feels Like 84 °F
N
10
Wind Variable Wind from ESE

Today
High -- | Low -- °F
--% Chance of Precip.
Yesterday
High -- | Low -- °F
Precip. -- in
5:45 AM 6:22 PM
Waxing Gibbous, 71% visible
Pressure 29.92 in
Visibility 6.2 miles
Clouds Few 1600 ft
Mostly Cloudy 30000 ft
Heat Index 84 °F
Dew Point 64 °F
Humidity 54%
Rainfall 0.00 in
Snow Depth Not available.
UV 0 out of 12
Pollen Not available.
Air Quality Not available.
Flu Activity Not available.
METAR SVBM 272300Z 11009KT 9999 FEW016 BKN300 28/18 Q1013

More Conditions Fewer Conditions

Pressure 29.92 in
Visibility 6.2 miles
Clouds Few 1600 ft
Mostly Cloudy 30000 ft
Heat Index 84 °F
Dew Point 64 °F
Humidity 54%
Rainfall 0.00 in
Snow Depth Not available.
UV 0 out of 12
Pollen Not available.
Air Quality Not available.
Flu Activity Not available.
METAR SVBM 272300Z 11009KT 9999 FEW016 BKN300 28/18 Q1013

More Conditions Fewer Conditions

10-Day Weather Forecast

Almanac

Astronomy

May. 27, 2015 Rise Set
Actual Time
Civil Twilight
Nautical Twilight
Astronomical Twilight
Moon
Length of Visible Light
Length of Day
Tomorrow will be .
, % of the Moon is Illuminated

Today's Extremes

Country Highs Country Lows

Community

WunderPhotos

Upload Photos

1,824,825 photos uploaded!

WunderBlogs® & News

Nearby

Air Quality

  Air Quality AQ Index Pollutant
Not available.

Snow Depth

Station Depth Elevation

Earthquake Activity

City Distance Mag. Time & Date
Minimum magnitude displayed is 2.5.

Coastal Water Temperatures

Place Temperature

Stations

Nearby Weather Stations

Station Location Temp. Windchill Dew Point Humidity Wind Precip. Elev Updated Type